Time;durP1;ratioP1;P1;durP2;ratioP2;P2;SDS_P1;SDS_P2;PMS_P1;PMS_P2;Temp;Humidity;BMP_temperature;BMP_pressure;BME280_temperature;BME280_humidity;BME280_pressure;Samples;Min_cycle;Max_cycle;Signal;HPM_P1;HPM_P2
2023/07/18 00:00:27;;;;;;;7.18;6.25;;;24.90;79.60;;;;;;5024618;28;20181;-72
2023/07/18 00:02:54;;;;;;;7.22;6.10;;;24.90;80.10;;;;;;5031626;28;20176;-72
2023/07/18 00:05:21;;;;;;;7.05;6.35;;;24.90;80.10;;;;;;5033240;28;20180;-72
2023/07/18 00:07:47;;;;;;;6.45;5.95;;;24.90;80.40;;;;;;5027447;28;20195;-72
2023/07/18 00:10:13;;;;;;;6.82;6.25;;;24.80;80.60;;;;;;5036393;28;20649;-72
2023/07/18 00:12:40;;;;;;;7.03;6.38;;;24.80;80.90;;;;;;5040198;28;20180;-71
2023/07/18 00:15:07;;;;;;;7.45;6.50;;;24.80;80.80;;;;;;5036224;28;20217;-72
2023/07/18 00:17:34;;;;;;;7.03;6.47;;;24.80;80.80;;;;;;5035639;28;20238;-71
2023/07/18 00:20:12;;;;;;;6.35;5.80;;;24.80;81.30;;;;;;5035683;28;20267;-72
2023/07/18 00:22:43;;;;;;;7.82;6.63;;;24.70;80.60;;;;;;5028044;28;20183;-72
2023/07/18 00:25:13;;;;;;;6.90;6.13;;;24.70;81.50;;;;;;5034820;28;20719;-72
2023/07/18 00:27:40;;;;;;;6.57;5.97;;;24.70;81.50;;;;;;5028492;28;20183;-72
2023/07/18 00:30:08;;;;;;;6.45;5.95;;;24.70;81.30;;;;;;5033551;28;20183;-72
2023/07/18 00:32:33;;;;;;;6.70;6.13;;;24.70;81.20;;;;;;5028081;28;20189;-72
2023/07/18 00:34:59;;;;;;;6.97;5.93;;;24.70;81.60;;;;;;5033517;28;20690;-72
2023/07/18 00:37:25;;;;;;;6.22;5.72;;;24.60;81.60;;;;;;5027338;28;20602;-72
2023/07/18 00:39:52;;;;;;;6.40;5.80;;;24.60;81.60;;;;;;5031548;28;20180;-72
2023/07/18 00:42:18;;;;;;;5.95;5.50;;;24.60;81.00;;;;;;5031053;28;20185;-72
2023/07/18 00:44:45;;;;;;;6.43;5.75;;;24.60;81.30;;;;;;5032604;28;20184;-72
2023/07/18 00:47:11;;;;;;;7.05;6.45;;;24.50;81.60;;;;;;5037425;28;20180;-72
2023/07/18 00:49:36;;;;;;;6.40;5.78;;;24.50;81.50;;;;;;5032863;28;20675;-72
2023/07/18 00:52:04;;;;;;;5.88;5.43;;;24.50;81.90;;;;;;5032189;28;20279;-72
2023/07/18 00:54:30;;;;;;;6.20;5.55;;;24.40;81.70;;;;;;5038208;28;20709;-72
2023/07/18 00:56:56;;;;;;;5.35;4.95;;;24.40;81.80;;;;;;5034116;28;20212;-71
2023/07/18 00:59:23;;;;;;;6.07;5.57;;;24.30;81.70;;;;;;5041336;28;20187;-72
2023/07/18 01:01:49;;;;;;;5.97;5.38;;;24.30;81.60;;;;;;5026690;28;20184;-71
2023/07/18 01:04:15;;;;;;;5.88;5.47;;;24.30;81.60;;;;;;5030970;28;20191;-72
2023/07/18 01:06:41;;;;;;;6.35;5.75;;;24.30;81.60;;;;;;5033112;28;20271;-72
2023/07/18 01:09:09;;;;;;;6.85;6.20;;;24.20;81.60;;;;;;5043671;28;20179;-72
2023/07/18 01:11:35;;;;;;;8.85;5.82;;;24.20;81.40;;;;;;5031660;28;20177;-71
2023/07/18 01:14:03;;;;;;;6.03;5.45;;;24.20;81.50;;;;;;5037509;28;20271;-71
2023/07/18 01:16:29;;;;;;;5.78;5.38;;;24.20;82.00;;;;;;5031660;28;20200;-72
2023/07/18 01:18:54;;;;;;;5.43;5.13;;;24.10;82.00;;;;;;5034591;28;20212;-72
2023/07/18 01:21:21;;;;;;;5.40;5.00;;;24.10;81.70;;;;;;5033098;28;20176;-72
2023/07/18 01:23:47;;;;;;;5.53;4.90;;;24.00;81.70;;;;;;5031449;28;20279;-72
2023/07/18 01:26:13;;;;;;;6.25;5.75;;;24.00;81.90;;;;;;5032823;28;20264;-72
2023/07/18 01:28:39;;;;;;;5.65;5.28;;;24.00;81.80;;;;;;5033452;28;20223;-72
2023/07/18 01:31:08;;;;;;;5.13;4.82;;;24.00;81.60;;;;;;5033497;28;20223;-72
2023/07/18 01:33:34;;;;;;;6.28;5.60;;;24.00;81.90;;;;;;5033828;28;20176;-72
2023/07/18 01:36:00;;;;;;;5.03;4.70;;;24.00;81.60;;;;;;5031429;28;20180;-72
2023/07/18 01:38:29;;;;;;;6.25;5.70;;;24.00;81.50;;;;;;5031343;28;20192;-71
2023/07/18 01:41:03;;;;;;;5.90;5.25;;;23.90;81.70;;;;;;5030415;28;20247;-71
2023/07/18 01:43:32;;;;;;;5.32;5.00;;;23.90;81.10;;;;;;5030041;28;20191;-71
2023/07/18 01:45:59;;;;;;;5.10;4.80;;;23.90;81.20;;;;;;5030213;28;20223;-71
2023/07/18 01:48:25;;;;;;;6.25;5.75;;;23.80;81.70;;;;;;5032048;28;20249;-72
2023/07/18 01:50:50;;;;;;;5.50;5.05;;;23.80;81.90;;;;;;5030832;28;20246;-72
2023/07/18 01:53:16;;;;;;;6.45;5.70;;;23.80;81.80;;;;;;5032482;28;20189;-71
2023/07/18 01:55:42;;;;;;;5.93;5.50;;;23.80;83.40;;;;;;5032485;28;20238;-71
2023/07/18 01:58:07;;;;;;;5.90;5.40;;;23.70;82.40;;;;;;5031892;28;20196;-72
2023/07/18 02:00:35;;;;;;;7.82;5.55;;;23.70;83.20;;;;;;5028836;28;20237;-71
2023/07/18 02:03:01;;;;;;;6.40;5.90;;;23.70;83.10;;;;;;5035547;28;20561;-72
2023/07/18 02:05:30;;;;;;;6.20;5.68;;;23.60;83.00;;;;;;5026250;28;20204;-71
2023/07/18 02:07:57;;;;;;;6.13;5.63;;;23.60;84.60;;;;;;5028373;28;20180;-71
2023/07/18 02:10:24;;;;;;;5.80;5.35;;;23.50;85.50;;;;;;5033755;28;20172;-72
2023/07/18 02:12:56;;;;;;;7.60;6.22;;;23.40;86.90;;;;;;5034447;28;20270;-71
2023/07/18 02:15:22;;;;;;;6.03;5.55;;;23.20;86.40;;;;;;5037187;28;20208;-71
2023/07/18 02:17:48;;;;;;;7.53;5.53;;;23.30;85.60;;;;;;5028056;28;20211;-71
2023/07/18 02:20:14;;;;;;;7.30;5.95;;;23.30;85.00;;;;;;5029702;28;20188;-71
2023/07/18 02:22:44;;;;;;;6.32;5.80;;;23.40;84.50;;;;;;5029602;28;20212;-71
2023/07/18 02:25:10;;;;;;;7.15;6.25;;;23.40;84.30;;;;;;5031570;28;20267;-71
2023/07/18 02:27:40;;;;;;;8.40;6.13;;;23.40;84.80;;;;;;5061010;28;20180;-71
2023/07/18 02:30:11;;;;;;;5.78;5.32;;;23.40;84.00;;;;;;5034934;28;20179;-72
2023/07/18 02:32:38;;;;;;;6.60;6.00;;;23.30;85.90;;;;;;5028637;28;20172;-71
2023/07/18 02:35:03;;;;;;;6.40;5.82;;;23.30;84.70;;;;;;5036307;28;20606;-72
2023/07/18 02:37:29;;;;;;;5.43;4.90;;;23.30;84.60;;;;;;5033216;28;20266;-71
2023/07/18 02:39:55;;;;;;;7.28;5.95;;;23.20;87.20;;;;;;5029877;28;20211;-72
2023/07/18 02:42:20;;;;;;;6.65;6.03;;;23.00;86.40;;;;;;5031609;28;20268;-72
2023/07/18 02:44:47;;;;;;;6.68;6.03;;;23.10;85.10;;;;;;5036541;28;20758;-72
2023/07/18 02:47:14;;;;;;;7.75;5.40;;;23.20;84.90;;;;;;5026618;28;20278;-72
2023/07/18 02:49:40;;;;;;;6.30;5.70;;;23.20;85.50;;;;;;5034212;28;20206;-72
2023/07/18 02:52:06;;;;;;;6.82;6.22;;;23.10;86.00;;;;;;5029566;28;20203;-72
2023/07/18 02:54:32;;;;;;;7.05;5.85;;;23.10;85.60;;;;;;5031270;28;20307;-72
2023/07/18 02:56:58;;;;;;;6.20;5.70;;;22.90;86.70;;;;;;5031039;28;20749;-71
2023/07/18 02:59:24;;;;;;;6.78;6.07;;;22.90;86.80;;;;;;5032715;28;20203;-72
2023/07/18 03:01:50;;;;;;;6.15;5.65;;;22.60;89.10;;;;;;5035458;28;20195;-71
2023/07/18 03:04:17;;;;;;;6.28;5.78;;;22.60;88.00;;;;;;5024461;28;20184;-71
2023/07/18 03:06:45;;;;;;;8.55;6.28;;;22.70;86.30;;;;;;5032798;28;20263;-72
2023/07/18 03:09:12;;;;;;;6.63;6.03;;;22.80;87.00;;;;;;5035360;28;20195;-72
2023/07/18 03:11:38;;;;;;;6.50;6.00;;;22.80;86.00;;;;;;5039458;28;20180;-72
2023/07/18 03:14:03;;;;;;;6.97;6.38;;;22.80;86.10;;;;;;5022670;28;20644;-72
2023/07/18 03:16:29;;;;;;;6.50;6.00;;;22.90;86.00;;;;;;5029768;28;20181;-71
2023/07/18 03:18:55;;;;;;;7.03;6.43;;;22.90;85.80;;;;;;5034430;28;20195;-71
2023/07/18 03:21:20;;;;;;;6.40;5.82;;;22.90;85.70;;;;;;5029201;28;20653;-71
2023/07/18 03:23:46;;;;;;;6.60;6.00;;;22.90;86.00;;;;;;5032407;28;20184;-71
2023/07/18 03:26:12;;;;;;;6.45;5.32;;;22.90;85.80;;;;;;5036386;28;20608;-71
2023/07/18 03:28:37;;;;;;;9.32;5.70;;;22.90;85.90;;;;;;5030394;28;20223;-72
2023/07/18 03:31:03;;;;;;;6.28;5.78;;;22.90;86.00;;;;;;5033528;28;20191;-72
2023/07/18 03:33:29;;;;;;;6.35;5.75;;;22.90;86.00;;;;;;5028292;28;20184;-72
2023/07/18 03:35:55;;;;;;;6.90;6.30;;;22.90;85.90;;;;;;5031167;28;20199;-73
2023/07/18 03:38:20;;;;;;;6.85;6.45;;;22.90;85.90;;;;;;5030254;28;20625;-72
2023/07/18 03:40:47;;;;;;;7.85;6.13;;;23.00;86.00;;;;;;5028405;28;20188;-72
2023/07/18 03:43:13;;;;;;;6.72;6.13;;;22.90;85.80;;;;;;5033000;28;20180;-72
2023/07/18 03:45:40;;;;;;;6.57;5.97;;;22.90;86.10;;;;;;5026227;28;20219;-72
2023/07/18 03:48:05;;;;;;;5.90;5.40;;;22.90;86.00;;;;;;5027864;28;20180;-72
2023/07/18 03:50:31;;;;;;;6.85;5.90;;;23.00;86.00;;;;;;5028877;28;20173;-72
2023/07/18 03:52:57;;;;;;;8.93;5.82;;;23.00;86.00;;;;;;5030469;28;20195;-72
2023/07/18 03:55:22;;;;;;;6.65;6.15;;;23.00;86.20;;;;;;5030486;28;20259;-72
2023/07/18 03:57:48;;;;;;;5.50;5.00;;;23.10;86.40;;;;;;5030325;28;20228;-72
2023/07/18 04:00:17;;;;;;;6.57;5.60;;;23.10;86.40;;;;;;5030159;28;20576;-72
2023/07/18 04:02:43;;;;;;;6.28;5.68;;;23.10;86.20;;;;;;5032360;28;20176;-72
2023/07/18 04:05:11;;;;;;;6.38;5.78;;;23.10;86.10;;;;;;5035524;28;20705;-72
2023/07/18 04:07:36;;;;;;;6.70;6.00;;;23.20;85.90;;;;;;5035481;28;20176;-72
2023/07/18 04:10:02;;;;;;;6.47;5.45;;;23.20;86.30;;;;;;5031725;28;20175;-72
2023/07/18 04:12:28;;;;;;;6.50;5.90;;;23.20;86.20;;;;;;5033574;28;20547;-72
2023/07/18 04:14:54;;;;;;;6.60;5.80;;;23.20;86.10;;;;;;5029549;28;20184;-72
2023/07/18 04:17:20;;;;;;;6.80;6.20;;;23.20;86.20;;;;;;5028410;28;20180;-72
2023/07/18 04:19:46;;;;;;;7.32;6.63;;;23.30;85.90;;;;;;5029593;28;20194;-73
2023/07/18 04:22:11;;;;;;;7.57;6.78;;;23.30;85.90;;;;;;5031060;28;20204;-72
2023/07/18 04:24:37;;;;;;;6.72;6.13;;;23.30;86.20;;;;;;5029470;28;20294;-73
2023/07/18 04:27:03;;;;;;;8.18;7.18;;;23.30;85.90;;;;;;5028643;28;20184;-72
2023/07/18 04:29:29;;;;;;;6.47;5.88;;;23.30;86.20;;;;;;5029523;28;20177;-73
2023/07/18 04:31:54;;;;;;;7.68;6.50;;;23.30;86.20;;;;;;5027412;28;20684;-73
2023/07/18 04:34:20;;;;;;;7.05;6.45;;;23.30;86.40;;;;;;5030469;28;20546;-72
2023/07/18 04:36:46;;;;;;;6.28;5.78;;;23.30;85.90;;;;;;5027018;28;20194;-72
2023/07/18 04:39:11;;;;;;;6.45;6.00;;;23.40;85.90;;;;;;5021393;28;20369;-72
2023/07/18 04:41:37;;;;;;;6.53;5.93;;;23.40;85.90;;;;;;5026811;28;20250;-73
2023/07/18 04:44:03;;;;;;;9.07;6.22;;;23.40;85.90;;;;;;5032706;28;20172;-73
2023/07/18 04:46:29;;;;;;;8.10;7.13;;;23.40;85.70;;;;;;5030436;28;20227;-73
2023/07/18 04:48:55;;;;;;;6.30;5.80;;;23.40;86.50;;;;;;5029271;28;20263;-73
2023/07/18 04:51:20;;;;;;;7.55;6.80;;;23.50;85.50;;;;;;5025465;28;20620;-72
2023/07/18 04:53:46;;;;;;;6.82;6.22;;;23.50;85.40;;;;;;5030797;28;20665;-73
2023/07/18 04:56:12;;;;;;;7.75;6.97;;;23.60;85.30;;;;;;5033651;28;20176;-73
2023/07/18 04:58:38;;;;;;;7.97;7.18;;;23.60;85.90;;;;;;5029251;28;20215;-72
2023/07/18 05:01:03;;;;;;;10.02;6.97;;;23.60;86.20;;;;;;5028888;28;20188;-73
2023/07/18 05:03:29;;;;;;;9.63;7.25;;;23.60;85.70;;;;;;5030000;28;20187;-73
2023/07/18 05:05:56;;;;;;;15.27;7.90;;;23.60;86.50;;;;;;5035401;28;20216;-73
2023/07/18 05:08:22;;;;;;;8.65;7.25;;;23.70;86.90;;;;;;5028922;28;20184;-72
2023/07/18 05:10:47;;;;;;;7.03;6.40;;;23.80;85.40;;;;;;5036165;28;20757;-73
2023/07/18 05:13:13;;;;;;;7.13;6.25;;;23.80;85.30;;;;;;5037896;28;20183;-72
2023/07/18 05:15:41;;;;;;;10.15;7.10;;;23.90;85.20;;;;;;5031626;28;20233;-72
2023/07/18 05:18:10;;;;;;;8.75;6.55;;;23.90;84.60;;;;;;5036991;28;20558;-72
2023/07/18 05:20:36;;;;;;;7.25;6.55;;;24.00;84.60;;;;;;5033626;28;20179;-72
2023/07/18 05:23:02;;;;;;;6.80;6.28;;;24.00;84.20;;;;;;5030234;28;20180;-72
2023/07/18 05:25:28;;;;;;;7.85;6.60;;;24.10;83.40;;;;;;5019346;28;20217;-71
2023/07/18 05:27:56;;;;;;;7.28;6.55;;;24.20;83.60;;;;;;5026652;28;20214;-72
2023/07/18 05:30:22;;;;;;;8.00;6.47;;;24.20;82.60;;;;;;5031798;28;20673;-75
2023/07/18 05:32:52;;;;;;;6.60;6.00;;;24.30;82.00;;;;;;5029837;28;20188;-74
2023/07/18 05:35:18;;;;;;;7.07;6.22;;;24.30;82.20;;;;;;5027799;28;20187;-72
2023/07/18 05:37:44;;;;;;;7.38;6.65;;;24.40;82.60;;;;;;5032462;28;20184;-72
2023/07/18 05:40:11;;;;;;;8.18;7.43;;;24.50;83.20;;;;;;5029520;28;20176;-74
2023/07/18 05:42:41;;;;;;;7.60;6.57;;;24.60;82.10;;;;;;5025050;28;20576;-73
2023/07/18 05:45:08;;;;;;;9.27;5.93;;;24.70;82.20;;;;;;5028297;28;20211;-74
2023/07/18 05:47:35;;;;;;;7.40;6.65;;;24.70;82.20;;;;;;5032113;28;20183;-72
2023/07/18 05:50:01;;;;;;;8.05;7.30;;;24.80;82.40;;;;;;5030992;28;20318;-72
2023/07/18 05:52:27;;;;;;;8.38;7.53;;;24.90;81.90;;;;;;5032327;28;20164;-72
2023/07/18 05:54:53;;;;;;;7.82;7.07;;;25.00;81.60;;;;;;5031352;28;20184;-72
2023/07/18 05:57:18;;;;;;;6.90;6.40;;;25.00;81.60;;;;;;5031784;28;20203;-72
2023/07/18 05:59:44;;;;;;;7.63;6.85;;;25.00;80.20;;;;;;5023788;28;20196;-73
2023/07/18 06:02:10;;;;;;;6.53;5.93;;;25.10;80.20;;;;;;5031264;28;20234;-73
2023/07/18 06:04:36;;;;;;;7.45;6.78;;;25.20;80.30;;;;;;5024173;28;20634;-72
2023/07/18 06:07:02;;;;;;;7.50;6.65;;;25.20;79.10;;;;;;5028533;28;20177;-72
2023/07/18 06:09:28;;;;;;;6.43;5.75;;;25.30;79.40;;;;;;5027431;28;20180;-72
2023/07/18 06:11:54;;;;;;;7.53;5.82;;;25.50;79.30;;;;;;5031989;28;20195;-72
2023/07/18 06:14:20;;;;;;;13.70;6.35;;;25.50;79.30;;;;;;5031024;28;20190;-72
2023/07/18 06:16:46;;;;;;;8.20;5.95;;;25.60;78.70;;;;;;5031301;28;20184;-72
2023/07/18 06:19:13;;;;;;;6.88;6.25;;;25.70;78.60;;;;;;5026491;28;20683;-72
2023/07/18 06:21:39;;;;;;;10.25;7.28;;;25.80;78.20;;;;;;5029233;28;20204;-72
2023/07/18 06:24:05;;;;;;;8.85;8.05;;;25.90;79.10;;;;;;5031466;28;20177;-72
2023/07/18 06:26:31;;;;;;;9.23;7.43;;;26.00;79.40;;;;;;5027760;28;20216;-72
2023/07/18 06:28:57;;;;;;;7.72;7.03;;;26.00;79.60;;;;;;5027081;28;20214;-72
2023/07/18 06:31:23;;;;;;;10.10;7.78;;;26.00;79.00;;;;;;5035760;28;20221;-73
2023/07/18 06:33:48;;;;;;;9.85;6.97;;;26.00;78.00;;;;;;5026420;28;20196;-72
2023/07/18 06:36:15;;;;;;;7.40;6.70;;;26.10;77.30;;;;;;5025834;28;20189;-72
2023/07/18 06:38:42;;;;;;;7.57;6.68;;;26.20;77.40;;;;;;5031438;28;20670;-72
2023/07/18 06:41:08;;;;;;;7.70;6.93;;;26.30;77.50;;;;;;5024952;28;20184;-73
2023/07/18 06:43:34;;;;;;;7.88;7.18;;;26.40;77.10;;;;;;5032392;28;20612;-71
2023/07/18 06:45:59;;;;;;;11.95;6.82;;;26.50;77.00;;;;;;5025524;28;20216;-73
2023/07/18 06:48:25;;;;;;;7.40;6.70;;;26.60;76.90;;;;;;5028832;28;20657;-73
2023/07/18 06:50:52;;;;;;;9.10;7.53;;;26.80;76.80;;;;;;5027647;28;20201;-72
2023/07/18 06:53:20;;;;;;;9.90;7.38;;;26.80;76.90;;;;;;5032667;28;20190;-70
2023/07/18 06:55:48;;;;;;;9.15;7.90;;;26.90;76.90;;;;;;5026676;28;20180;-71
2023/07/18 06:58:14;;;;;;;9.98;8.35;;;27.00;77.50;;;;;;5027634;28;20258;-73
2023/07/18 07:00:40;;;;;;;9.40;7.05;;;27.20;77.80;;;;;;5023610;28;20620;-73
2023/07/18 07:03:09;;;;;;;7.93;7.20;;;27.20;77.20;;;;;;5030898;28;20176;-73
2023/07/18 07:05:38;;;;;;;11.07;8.13;;;27.30;77.20;;;;;;5035165;28;20314;-73
2023/07/18 07:08:08;;;;;;;8.93;7.68;;;27.40;77.70;;;;;;5029375;28;20270;-72
2023/07/18 07:10:35;;;;;;;9.10;7.72;;;27.50;77.40;;;;;;5026775;28;20207;-73
2023/07/18 07:13:00;;;;;;;9.40;8.32;;;27.60;77.20;;;;;;5028145;28;20856;-74
2023/07/18 07:15:26;;;;;;;11.20;8.60;;;27.60;77.60;;;;;;5027195;28;20268;-74
2023/07/18 07:17:52;;;;;;;9.35;7.82;;;27.70;77.80;;;;;;5029383;28;21385;-74
2023/07/18 07:20:19;;;;;;;9.05;7.65;;;27.70;77.30;;;;;;5028253;28;20195;-74
2023/07/18 07:22:47;;;;;;;28.02;7.28;;;27.80;77.50;;;;;;5029403;28;20180;-74
2023/07/18 07:25:14;;;;;;;8.75;7.95;;;27.90;77.00;;;;;;5029082;28;20204;-74
2023/07/18 07:27:44;;;;;;;12.50;7.55;;;28.00;77.10;;;;;;5035124;28;21297;-75
2023/07/18 07:30:15;;;;;;;7.90;6.90;;;28.10;77.10;;;;;;5027523;28;20732;-75
2023/07/18 07:32:44;;;;;;;11.02;7.32;;;28.20;76.80;;;;;;5032519;28;20194;-75
2023/07/18 07:35:11;;;;;;;8.48;7.10;;;28.50;75.80;;;;;;5034720;28;20199;-75
2023/07/18 07:37:37;;;;;;;8.05;7.25;;;28.60;75.40;;;;;;5029568;28;20227;-75
2023/07/18 07:40:11;;;;;;;7.82;6.88;;;28.70;75.00;;;;;;5030197;28;20176;-75
2023/07/18 07:42:38;;;;;;;9.00;6.65;;;28.90;75.50;;;;;;5022386;28;20180;-75
2023/07/18 07:45:04;;;;;;;7.80;6.93;;;29.00;75.40;;;;;;5046029;28;20296;-74
2023/07/18 07:47:30;;;;;;;7.47;6.90;;;29.00;75.40;;;;;;5031469;28;20185;-77
2023/07/18 07:49:55;;;;;;;7.85;6.85;;;29.00;74.80;;;;;;5031258;28;20187;-75
2023/07/18 07:52:21;;;;;;;7.88;7.07;;;29.10;74.30;;;;;;5026597;28;20181;-74
2023/07/18 07:54:48;;;;;;;10.45;7.53;;;29.10;74.50;;;;;;5029408;28;20196;-77
2023/07/18 07:57:14;;;;;;;8.18;7.35;;;29.10;74.10;;;;;;5033213;28;20187;-76
2023/07/18 07:59:40;;;;;;;11.13;7.82;;;29.20;74.10;;;;;;5033951;28;20192;-76
2023/07/18 08:02:06;;;;;;;9.32;8.02;;;29.20;74.70;;;;;;5030490;28;20188;-76
2023/07/18 08:04:32;;;;;;;10.45;8.63;;;29.30;74.60;;;;;;5027360;28;20297;-76
2023/07/18 08:06:58;;;;;;;10.55;8.45;;;29.40;73.60;;;;;;5030837;28;20646;-77
2023/07/18 08:09:23;;;;;;;10.63;8.48;;;29.50;73.90;;;;;;5033031;28;20192;-77
2023/07/18 08:11:49;;;;;;;10.90;8.23;;;29.50;73.80;;;;;;5033066;28;20184;-77
2023/07/18 08:14:17;;;;;;;8.45;7.68;;;;;;;;;;5032322;28;20184;-75
2023/07/18 08:16:43;;;;;;;8.23;7.25;;;29.60;73.20;;;;;;5022688;28;20239;-75
2023/07/18 08:19:09;;;;;;;10.48;7.60;;;29.80;72.70;;;;;;5024340;28;20176;-75
2023/07/18 08:21:35;;;;;;;18.77;8.07;;;29.80;72.80;;;;;;5029381;28;20191;-75
2023/07/18 08:24:02;;;;;;;8.57;7.47;;;29.90;72.60;;;;;;5032534;28;20268;-74
2023/07/18 08:26:27;;;;;;;7.95;6.90;;;30.00;72.60;;;;;;5028823;28;20291;-75
2023/07/18 08:28:53;;;;;;;8.77;7.07;;;30.00;72.60;;;;;;5033476;28;20272;-75
2023/07/18 08:31:19;;;;;;;8.40;7.60;;;30.30;71.70;;;;;;5062625;28;20179;-75
2023/07/18 08:33:45;;;;;;;7.95;7.15;;;30.40;72.50;;;;;;5028031;28;20188;-75
2023/07/18 08:36:11;;;;;;;7.75;7.07;;;30.50;71.00;;;;;;5021040;28;20228;-76
2023/07/18 08:38:37;;;;;;;8.45;7.63;;;30.50;71.60;;;;;;5039876;28;20188;-75
2023/07/18 08:41:04;;;;;;;8.52;7.63;;;30.60;71.60;;;;;;5025011;28;20421;-76
2023/07/18 08:43:33;;;;;;;8.85;8.02;;;30.70;70.20;;;;;;5026729;28;20253;-76
2023/07/18 08:45:59;;;;;;;8.38;7.68;;;31.00;70.20;;;;;;5028745;28;20612;-76
2023/07/18 08:48:25;;;;;;;8.90;7.85;;;;;;;;;;5028635;28;20267;-75
2023/07/18 08:50:53;;;;;;;9.77;7.57;;;31.00;69.70;;;;;;5027911;28;20175;-74
2023/07/18 08:53:19;;;;;;;8.77;7.78;;;31.10;69.20;;;;;;5028578;28;20184;-75
2023/07/18 08:55:45;;;;;;;10.18;8.02;;;31.20;69.50;;;;;;5033065;28;20549;-75
2023/07/18 08:58:11;;;;;;;8.77;7.07;;;31.20;69.50;;;;;;5035938;28;20271;-75
2023/07/18 09:00:38;;;;;;;8.52;7.72;;;31.20;69.10;;;;;;5035704;28;20172;-75
2023/07/18 09:03:03;;;;;;;8.75;7.90;;;31.20;69.20;;;;;;5033640;28;20337;-75
2023/07/18 09:05:37;;;;;;;9.07;8.18;;;31.40;68.30;;;;;;5018586;28;20306;-75
2023/07/18 09:08:05;;;;;;;11.57;8.02;;;31.40;68.60;;;;;;5003976;28;20283;-75
2023/07/18 09:10:32;;;;;;;10.40;7.30;;;31.40;69.10;;;;;;5028535;28;20665;-74
2023/07/18 09:13:03;;;;;;;8.07;7.18;;;31.50;68.20;;;;;;5018541;28;20206;-75
2023/07/18 09:15:29;;;;;;;7.82;6.97;;;31.40;68.20;;;;;;5015328;28;20608;-75
2023/07/18 09:18:02;;;;;;;8.13;7.50;;;31.50;67.80;;;;;;5005643;28;20708;-75
2023/07/18 09:20:30;;;;;;;9.00;8.18;;;;;;;;;;5008669;28;20215;-76
2023/07/18 09:23:02;;;;;;;8.77;7.70;;;31.70;67.80;;;;;;5043770;28;20279;-75
2023/07/18 09:25:29;;;;;;;8.27;7.47;;;31.90;68.30;;;;;;5063454;28;20254;-75
2023/07/18 09:27:57;;;;;;;8.70;7.90;;;32.30;67.80;;;;;;5029383;28;20294;-76
2023/07/18 09:30:29;;;;;;;8.80;8.10;;;32.30;67.20;;;;;;5016625;28;20207;-76
2023/07/18 09:32:55;;;;;;;9.25;8.18;;;32.40;67.10;;;;;;5020290;28;20206;-76
2023/07/18 09:35:21;;;;;;;9.32;8.48;;;;;;;;;;5015884;28;20910;-75
2023/07/18 09:37:49;;;;;;;11.23;8.45;;;32.60;67.50;;;;;;5015282;28;20268;-76
2023/07/18 09:40:17;;;;;;;10.82;8.27;;;32.80;67.20;;;;;;5009971;28;20694;-74
2023/07/18 09:42:47;;;;;;;9.30;8.25;;;32.90;66.90;;;;;;5011612;28;20205;-75
2023/07/18 09:45:14;;;;;;;9.82;8.55;;;32.90;66.80;;;;;;5012560;28;20252;-76
2023/07/18 09:47:41;;;;;;;8.68;8.07;;;32.90;65.90;;;;;;5019245;28;20705;-76
2023/07/18 09:50:14;;;;;;;9.30;8.45;;;33.00;66.80;;;;;;5013482;28;20200;-75
2023/07/18 09:52:44;;;;;;;9.02;8.23;;;33.20;66.10;;;;;;5012098;28;20233;-76
2023/07/18 09:55:10;;;;;;;7.78;7.07;;;33.30;65.00;;;;;;5010276;28;20743;-75
2023/07/18 09:57:39;;;;;;;8.50;7.70;;;33.50;64.70;;;;;;5013223;28;20231;-76
2023/07/18 10:00:05;;;;;;;8.98;8.20;;;33.60;64.70;;;;;;5012343;28;20242;-76
2023/07/18 10:02:34;;;;;;;7.93;7.43;;;33.60;64.60;;;;;;5009647;28;20231;-76
2023/07/18 10:05:02;;;;;;;8.20;7.60;;;33.80;63.30;;;;;;5014343;28;21449;-76
2023/07/18 10:07:30;;;;;;;7.80;7.18;;;33.90;63.70;;;;;;5011045;28;20203;-76
2023/07/18 10:09:56;;;;;;;7.72;7.13;;;34.00;62.50;;;;;;5009591;28;21799;-75
2023/07/18 10:12:23;;;;;;;6.75;6.15;;;;;;;;;;5011502;28;20207;-76
2023/07/18 10:14:49;;;;;;;7.82;6.60;;;34.40;62.80;;;;;;5010154;28;21108;-75
2023/07/18 10:17:31;;;;;;;7.03;6.53;;;34.60;61.90;;;;;;5012046;28;20334;-77
2023/07/18 10:19:57;;;;;;;7.25;6.65;;;34.80;61.30;;;;;;5012916;28;20297;-76
2023/07/18 10:22:29;;;;;;;7.30;6.75;;;35.10;61.00;;;;;;5012512;28;20210;-76
2023/07/18 10:25:06;;;;;;;6.70;6.20;;;35.50;60.40;;;;;;5013050;28;20281;-75
2023/07/18 10:27:38;;;;;;;6.22;5.88;;;35.70;60.10;;;;;;5013287;28;20214;-75
2023/07/18 10:30:06;;;;;;;7.07;6.57;;;36.00;59.50;;;;;;5013392;28;20213;-74
2023/07/18 10:32:33;;;;;;;7.45;6.95;;;36.00;60.00;;;;;;5014270;28;20218;-76
2023/07/18 10:35:00;;;;;;;7.30;6.75;;;36.20;60.30;;;;;;5020845;28;20279;-75
2023/07/18 10:37:30;;;;;;;6.22;5.65;;;36.30;57.60;;;;;;5019422;28;20675;-76
2023/07/18 10:39:56;;;;;;;6.32;5.60;;;36.50;57.40;;;;;;5011209;28;20199;-77
2023/07/18 10:42:30;;;;;;;5.72;5.32;;;36.70;57.00;;;;;;5013794;28;20332;-76
2023/07/18 10:45:14;;;;;;;5.85;5.35;;;36.90;56.60;;;;;;5007617;28;20218;-76
2023/07/18 10:47:41;;;;;;;5.00;4.80;;;36.90;55.90;;;;;;5019402;28;20596;-78
2023/07/18 10:50:07;;;;;;;6.85;4.38;;;36.80;55.40;;;;;;5012292;28;20203;-77
2023/07/18 10:52:34;;;;;;;4.28;3.90;;;36.60;56.20;;;;;;5013129;28;20200;-77
2023/07/18 10:55:01;;;;;;;4.03;3.72;;;36.60;54.20;;;;;;5014806;28;20210;-77
2023/07/18 10:57:35;;;;;;;3.17;3.00;;;36.60;54.40;;;;;;5013997;28;20238;-76
2023/07/18 11:00:05;;;;;;;3.38;3.28;;;37.00;53.80;;;;;;5012592;28;20199;-76
2023/07/18 11:02:41;;;;;;;3.03;2.90;;;37.50;53.50;;;;;;5010483;28;20785;-77
2023/07/18 11:05:12;;;;;;;2.90;2.80;;;38.20;52.60;;;;;;5013649;28;20223;-77
2023/07/18 11:07:46;;;;;;;4.00;2.83;;;38.80;49.90;;;;;;5026478;28;20184;-77
2023/07/18 11:10:15;;;;;;;2.60;2.50;;;39.50;49.20;;;;;;5026144;28;20183;-77
2023/07/18 11:12:42;;;;;;;2.33;2.22;;;40.10;48.00;;;;;;5026942;28;20195;-75
2023/07/18 11:15:09;;;;;;;3.65;2.17;;;40.60;45.10;;;;;;5027305;28;20234;-77
2023/07/18 11:17:35;;;;;;;3.03;2.83;;;40.90;46.50;;;;;;5025320;28;20191;-75
2023/07/18 11:20:02;;;;;;;3.92;2.70;;;41.20;45.30;;;;;;5027556;28;20187;-76
2023/07/18 11:22:29;;;;;;;2.42;2.42;;;41.50;45.60;;;;;;5025586;28;20314;-76
2023/07/18 11:24:55;;;;;;;2.20;2.10;;;41.80;45.10;;;;;;5027732;28;20285;-76
2023/07/18 11:27:25;;;;;;;2.10;2.10;;;42.10;43.30;;;;;;5031450;28;20730;-76
2023/07/18 11:29:54;;;;;;;2.20;1.83;;;42.30;43.70;;;;;;5030774;28;20178;-76
2023/07/18 11:32:42;;;;;;;2.70;2.50;;;42.50;46.20;;;;;;5030323;28;20208;-77
2023/07/18 11:35:26;;;;;;;2.25;1.75;;;42.80;44.70;;;;;;5024746;28;20183;-77
2023/07/18 11:37:53;;;;;;;1.80;1.80;;;43.10;42.70;;;;;;5024239;28;20183;-76
2023/07/18 11:40:21;;;;;;;2.60;2.08;;;43.40;41.80;;;;;;5025626;28;20187;-75
2023/07/18 11:42:52;;;;;;;1.63;1.63;;;43.70;42.30;;;;;;5024671;28;20183;-75
2023/07/18 11:45:19;;;;;;;2.30;1.95;;;44.00;41.80;;;;;;5026966;28;20221;-77
2023/07/18 11:47:47;;;;;;;5.70;2.40;;;44.20;41.40;;;;;;5023973;28;20673;-77
2023/07/18 11:50:14;;;;;;;2.00;1.90;;;44.20;41.60;;;;;;5028861;28;20248;-77
2023/07/18 11:52:41;;;;;;;1.80;1.77;;;44.30;41.30;;;;;;5023086;28;20701;-78
2023/07/18 11:55:07;;;;;;;2.55;2.45;;;44.40;42.10;;;;;;5020904;28;20246;-77
2023/07/18 11:57:33;;;;;;;2.08;1.98;;;;;;;;;;5026584;28;20203;-77
2023/07/18 12:00:00;;;;;;;2.17;2.08;;;44.80;40.80;;;;;;5028986;28;20191;-77
2023/07/18 12:02:26;;;;;;;2.00;2.00;;;45.00;42.00;;;;;;5027768;28;20180;-77
2023/07/18 12:04:52;;;;;;;1.55;1.55;;;45.00;41.30;;;;;;5028934;28;20207;-78
2023/07/18 12:07:18;;;;;;;2.45;1.70;;;;;;;;;;5024612;28;20203;-80
2023/07/18 12:09:45;;;;;;;2.15;2.15;;;;;;;;;;5030882;28;20261;-77
2023/07/18 12:12:10;;;;;;;1.88;1.88;;;45.50;41.80;;;;;;5027575;28;20224;-77
2023/07/18 12:14:36;;;;;;;2.22;2.10;;;45.60;42.20;;;;;;5022763;28;20649;-77
2023/07/18 12:17:02;;;;;;;1.83;1.83;;;;;;;;;;5025704;28;20669;-77
2023/07/18 12:19:28;;;;;;;2.33;2.22;;;;;;;;;;5025916;28;20192;-77
2023/07/18 12:21:54;;;;;;;2.30;2.17;;;;;;;;;;5025253;28;20184;-76
2023/07/18 12:24:20;;;;;;;2.42;2.30;;;;;;;;;;5023835;28;21025;-77
2023/07/18 12:26:46;;;;;;;3.47;1.83;;;46.60;40.70;;;;;;5028848;28;20277;-76
2023/07/18 12:29:15;;;;;;;2.70;2.58;;;47.00;42.10;;;;;;5026119;28;20246;-76
2023/07/18 12:31:51;;;;;;;2.88;1.90;;;47.20;41.10;;;;;;5027187;28;20187;-77
2023/07/18 12:34:20;;;;;;;2.15;2.15;;;47.60;43.00;;;;;;5028762;28;20266;-76
2023/07/18 12:36:46;;;;;;;2.75;1.85;;;;;;;;;;5033397;28;20219;-77
2023/07/18 12:39:13;;;;;;;2.70;2.60;;;47.80;39.80;;;;;;5027354;28;20184;-77
2023/07/18 12:41:39;;;;;;;2.03;2.03;;;;;;;;;;5026973;28;20181;-78
2023/07/18 12:44:04;;;;;;;2.88;2.78;;;47.90;39.10;;;;;;5037015;28;20198;-77
2023/07/18 12:46:30;;;;;;;2.30;2.30;;;47.90;38.90;;;;;;5031656;28;20230;-77
2023/07/18 12:48:56;;;;;;;2.15;2.15;;;48.10;39.50;;;;;;5032334;28;20188;-78